Antonios — SY8410 — position and weather

sailwx.info

Track history (hours):
 
Tides and Currents Weather Stations Pressure Air Temp Water Temp Dewpoint Dewpoint Depression Visibility Wind Speed Wind Dir Waves Ship Positions

Antonios

Last reported at 2016-Feb-06 05:26 UTC. Time now 2016-Feb-14 08:09 UTC.
Position N 37°40' E 023°44'.
Warning: this ship's position is 8 days out of date.

Length 57 m; draft 4.1 m.

Type: Tanker. MMSI: 239191300.

Date/timePositionNaut miles runAvg speedWind from/ knotsBaromVisibWave heightAir tempDewpointWater temp
2016-Feb-06 05:26N 37°40' E 023°44'9 9.6
2016-Feb-06 04:33N 37°47' E 023°38'9 9.4
2016-Feb-06 03:33N 37°50' E 023°27'10 9.8
2016-Feb-06 02:30N 37°53' E 023°14'7 1.6
2016-Feb-05 22:07N 37°55' E 023°05'0 0.0
2016-Feb-05 21:32N 37°55' E 023°05'0 0.0
2016-Feb-05 20:31N 37°55' E 023°05'0 0.0
2016-Feb-05 12:32N 37°55' E 023°05'1 1.2
2016-Feb-05 11:33N 37°54' E 023°07'7 7.0
2016-Feb-05 10:34N 37°53' E 023°15'1010.0
2016-Feb-05 09:33N 37°50' E 023°28'9 9.4
2016-Feb-05 08:33N 37°49' E 023°39'10 9.7
2016-Feb-05 07:33N 37°40' E 023°45'52 8.7
2016-Feb-05 01:33N 37°23' E 024°47'9 9.1
2016-Feb-05 00:33N 37°21' E 024°58'10 9.7
2016-Feb-04 23:33N 37°20' E 025°10'1010.0
2016-Feb-04 22:33N 37°20' E 025°23'1010.3
2016-Feb-04 21:33N 37°19' E 025°35'1010.0
2016-Feb-04 20:33N 37°17' E 025°48'  
Track history (hours):
 
Tides and Currents Weather Stations Pressure Air Temp Water Temp Dewpoint Dewpoint Depression Visibility Wind Speed Wind Dir Waves Ship Positions

Antonios

Last reported at 2016-Feb-06 05:26 UTC. Time now 2016-Feb-14 08:09 UTC.
Position N 37°40' E 023°44'.
Warning: this ship's position is 8 days out of date.

Length 57 m; draft 4.1 m.

Type: Tanker. MMSI: 239191300.

Date/timePositionNaut miles runAvg speedWind from/ knotsBaromVisibWave heightAir tempDewpointWater temp
2016-Feb-06 05:26N 37°40' E 023°44'9 9.6
2016-Feb-06 04:33N 37°47' E 023°38'9 9.4
2016-Feb-06 03:33N 37°50' E 023°27'10 9.8
2016-Feb-06 02:30N 37°53' E 023°14'7 1.6
2016-Feb-05 22:07N 37°55' E 023°05'0 0.0
2016-Feb-05 21:32N 37°55' E 023°05'0 0.0
2016-Feb-05 20:31N 37°55' E 023°05'0 0.0
2016-Feb-05 12:32N 37°55' E 023°05'1 1.2
2016-Feb-05 11:33N 37°54' E 023°07'7 7.0
2016-Feb-05 10:34N 37°53' E 023°15'1010.0
2016-Feb-05 09:33N 37°50' E 023°28'9 9.4
2016-Feb-05 08:33N 37°49' E 023°39'10 9.7
2016-Feb-05 07:33N 37°40' E 023°45'52 8.7
2016-Feb-05 01:33N 37°23' E 024°47'9 9.1
2016-Feb-05 00:33N 37°21' E 024°58'10 9.7
2016-Feb-04 23:33N 37°20' E 025°10'1010.0
2016-Feb-04 22:33N 37°20' E 025°23'1010.3
2016-Feb-04 21:33N 37°19' E 025°35'1010.0
2016-Feb-04 20:33N 37°17' E 025°48'  

Dump ship's entire track history